createdAt,value
2019-01-22T00:00:18.261Z,8.38
2019-01-22T00:02:46.844Z,6.87
2019-01-22T00:05:15.527Z,13.55
2019-01-22T00:07:44.110Z,14.63
2019-01-22T00:10:12.980Z,12.05
2019-01-22T00:12:41.450Z,12.53
2019-01-22T00:15:14.043Z,10.65
2019-01-22T00:17:42.882Z,11.05
2019-01-22T00:20:15.612Z,10.48
2019-01-22T00:22:44.073Z,8.18
2019-01-22T00:25:14.361Z,8.38
2019-01-22T00:27:43.155Z,8.98
2019-01-22T00:30:15.077Z,7.90
2019-01-22T00:32:43.608Z,7.85
2019-01-22T00:35:12.268Z,7.80
2019-01-22T00:37:40.807Z,6.35
2019-01-22T00:40:12.429Z,8.58
2019-01-22T00:42:41.438Z,8.00
2019-01-22T00:45:10.591Z,8.28
2019-01-22T00:47:39.119Z,7.20
2019-01-22T00:50:10.953Z,5.60
2019-01-22T00:52:39.482Z,8.35
2019-01-22T00:55:10.648Z,8.55
2019-01-22T00:57:39.197Z,7.58
2019-01-22T01:00:10.865Z,7.70
2019-01-22T01:02:39.316Z,10.50
2019-01-22T01:05:08.805Z,6.75
2019-01-22T01:07:37.400Z,9.65
2019-01-22T01:10:09.240Z,7.42
2019-01-22T01:12:37.750Z,13.88
2019-01-22T01:15:09.393Z,9.78
2019-01-22T01:17:37.839Z,12.60
2019-01-22T01:20:17.787Z,7.97
2019-01-22T01:22:46.248Z,9.55
2019-01-22T01:25:18.027Z,11.08
2019-01-22T01:27:46.785Z,14.80
2019-01-22T01:30:17.782Z,22.93
2019-01-22T01:32:46.310Z,20.12
2019-01-22T01:35:14.932Z,20.88
2019-01-22T01:37:45.038Z,19.12
2019-01-22T01:40:15.848Z,10.05
2019-01-22T01:42:44.490Z,13.03
2019-01-22T01:45:13.826Z,14.63
2019-01-22T01:47:42.884Z,15.13
2019-01-22T01:50:13.811Z,23.12
2019-01-22T01:52:42.464Z,13.58
2019-01-22T01:55:13.355Z,16.12
2019-01-22T01:57:41.863Z,12.43
2019-01-22T02:00:15.997Z,16.17
2019-01-22T02:02:44.588Z,10.03
2019-01-22T02:05:13.169Z,10.43
2019-01-22T02:07:41.842Z,9.25
2019-01-22T02:10:19.037Z,12.68
2019-01-22T02:12:53.779Z,8.23
2019-01-22T02:15:31.043Z,13.98
2019-01-22T02:18:35.817Z,10.68
2019-01-22T02:21:24.071Z,11.38
2019-01-22T02:24:10.485Z,8.95
2019-01-22T02:26:58.585Z,9.45
2019-01-22T02:29:42.312Z,12.07
2019-01-22T02:32:19.990Z,9.30
2019-01-22T02:35:03.857Z,11.20
2019-01-22T02:37:54.862Z,10.15
2019-01-22T02:40:26.468Z,11.40
2019-01-22T02:43:17.832Z,12.10
2019-01-22T02:46:15.405Z,10.85
2019-01-22T02:48:49.754Z,11.55
2019-01-22T02:51:30.327Z,9.38
2019-01-22T02:54:01.904Z,9.65
2019-01-22T02:56:36.495Z,7.75
2019-01-22T02:59:26.338Z,9.83
2019-01-22T03:02:06.768Z,9.65
2019-01-22T03:04:41.003Z,13.72
2019-01-22T03:07:27.521Z,11.55
2019-01-22T03:10:01.969Z,12.37
2019-01-22T03:12:46.185Z,14.18
2019-01-22T03:15:22.765Z,10.93
2019-01-22T03:17:59.885Z,13.28
2019-01-22T03:20:47.884Z,11.75
2019-01-22T03:23:25.505Z,12.25
2019-01-22T03:26:26.556Z,11.83
2019-01-22T03:29:21.130Z,10.65
2019-01-22T03:31:55.448Z,13.20
2019-01-22T03:34:32.962Z,12.43
2019-01-22T03:37:19.356Z,11.90
2019-01-22T03:39:53.560Z,12.73
2019-01-22T03:42:30.688Z,17.65
2019-01-22T03:45:21.599Z,12.60
2019-01-22T03:48:07.577Z,14.35
2019-01-22T03:50:55.756Z,14.65
2019-01-22T03:53:29.983Z,10.85
2019-01-22T03:56:07.236Z,13.78
2019-01-22T03:58:35.695Z,14.58
2019-01-22T04:01:05.588Z,14.65
2019-01-22T04:03:34.188Z,13.68
2019-01-22T04:06:04.703Z,11.90
2019-01-22T04:08:33.640Z,21.97
2019-01-22T04:11:04.332Z,15.15
2019-01-22T04:13:32.825Z,15.25
2019-01-22T04:16:01.660Z,10.58
2019-01-22T04:18:30.221Z,14.25
2019-01-22T04:21:03.079Z,11.70
2019-01-22T04:23:34.104Z,12.35
2019-01-22T04:26:17.349Z,14.80
2019-01-22T04:29:06.805Z,14.23
2019-01-22T04:31:38.470Z,12.73
2019-01-22T04:34:32.297Z,12.58
2019-01-22T04:37:11.136Z,15.45
2019-01-22T04:39:59.104Z,13.15
2019-01-22T04:42:51.728Z,19.30
2019-01-22T04:45:42.600Z,15.05
2019-01-22T04:48:30.793Z,16.05
2019-01-22T04:51:14.608Z,17.95
2019-01-22T04:53:46.202Z,14.90
2019-01-22T04:56:29.405Z,19.50
2019-01-22T04:59:12.459Z,24.50
2019-01-22T05:01:59.033Z,17.32
2019-01-22T05:04:36.212Z,22.42
2019-01-22T05:07:19.478Z,18.20
2019-01-22T05:09:54.460Z,27.50
2019-01-22T05:12:41.138Z,22.07
2019-01-22T05:15:30.786Z,25.27
2019-01-22T05:18:17.268Z,22.05
2019-01-22T05:21:05.087Z,17.17
2019-01-22T05:23:39.535Z,19.07
2019-01-22T05:26:23.095Z,19.80
2019-01-22T05:29:17.171Z,22.52
2019-01-22T05:32:01.014Z,22.75
2019-01-22T05:34:38.158Z,24.27
2019-01-22T05:37:12.749Z,21.90
2019-01-22T05:40:13.185Z,19.07
2019-01-22T05:42:44.788Z,18.98
2019-01-22T05:45:18.833Z,17.62
2019-01-22T05:47:59.364Z,21.07
2019-01-22T05:50:30.952Z,22.10
2019-01-22T05:53:25.574Z,20.35
2019-01-22T05:56:05.872Z,19.73
2019-01-22T05:58:49.197Z,20.30
2019-01-22T06:01:21.053Z,27.02
2019-01-22T06:03:59.819Z,24.10
2019-01-22T06:06:37.291Z,20.65
2019-01-22T06:09:11.568Z,24.25
2019-01-22T06:11:57.456Z,19.52
2019-01-22T06:14:29.039Z,20.27
2019-01-22T06:17:09.444Z,15.20
2019-01-22T06:20:17.524Z,17.82
2019-01-22T06:22:57.950Z,17.20
2019-01-22T06:25:49.695Z,21.00
2019-01-22T06:28:30.563Z,16.90
2019-01-22T06:31:16.546Z,18.77
2019-01-22T06:33:48.518Z,20.35
2019-01-22T06:36:37.389Z,24.27
2019-01-22T06:39:24.254Z,18.07
2019-01-22T06:42:20.587Z,16.93
2019-01-22T06:45:03.512Z,19.62
2019-01-22T06:47:38.008Z,23.10
2019-01-22T06:50:27.857Z,29.85
2019-01-22T06:53:02.224Z,16.65
2019-01-22T06:55:33.736Z,18.85
2019-01-22T06:58:17.208Z,19.15
2019-01-22T07:01:06.748Z,24.50
2019-01-22T07:03:38.288Z,25.05
2019-01-22T07:06:15.653Z,22.58
2019-01-22T07:08:50.266Z,23.35
2019-01-22T07:11:38.146Z,22.87
2019-01-22T07:14:38.966Z,19.60
2019-01-22T07:17:13.427Z,19.92
2019-01-22T07:19:47.702Z,26.48
2019-01-22T07:22:21.829Z,21.25
2019-01-22T07:25:04.680Z,27.95
2019-01-22T07:27:38.243Z,24.80
2019-01-22T07:30:28.832Z,24.45
2019-01-22T07:33:14.936Z,25.95
2019-01-22T07:35:52.285Z,23.60
2019-01-22T07:38:26.445Z,23.90
2019-01-22T07:41:09.765Z,26.12
2019-01-22T07:43:50.401Z,21.80
2019-01-22T07:46:50.895Z,24.67
2019-01-22T07:49:22.441Z,27.13
2019-01-22T07:52:05.999Z,29.40
2019-01-22T07:54:54.002Z,28.52
2019-01-22T07:57:43.304Z,28.55
2019-01-22T08:00:26.607Z,33.85
2019-01-22T08:03:00.928Z,33.08
2019-01-22T08:05:39.179Z,29.48
2019-01-22T08:08:17.868Z,25.08
2019-01-22T08:10:51.989Z,31.30
2019-01-22T08:13:43.001Z,25.65
2019-01-22T08:16:35.945Z,25.68
2019-01-22T08:19:22.543Z,23.87
2019-01-22T08:22:11.677Z,23.25
2019-01-22T08:24:43.356Z,24.23
2019-01-22T08:27:33.056Z,17.87
2019-01-22T08:30:10.353Z,19.30
2019-01-22T08:32:47.748Z,19.52
2019-01-22T08:35:31.162Z,18.70
2019-01-22T08:38:26.517Z,24.10
2019-01-22T08:41:27.071Z,29.30
2019-01-22T08:44:07.631Z,27.73
2019-01-22T08:46:57.302Z,25.92
2019-01-22T08:49:37.904Z,31.15
2019-01-22T08:52:12.476Z,23.10
2019-01-22T08:55:08.543Z,27.62
2019-01-22T08:57:40.134Z,25.92
2019-01-22T09:00:44.913Z,27.10
2019-01-22T09:03:19.057Z,29.35
2019-01-22T09:05:53.548Z,28.25
2019-01-22T09:08:27.919Z,25.35
2019-01-22T09:11:22.027Z,25.85
2019-01-22T09:13:57.363Z,34.40
2019-01-22T09:16:31.924Z,26.45
2019-01-22T09:19:27.108Z,26.10
2019-01-22T09:22:30.421Z,33.90
2019-01-22T09:25:19.729Z,27.75
2019-01-22T09:28:06.519Z,30.35
2019-01-22T09:30:49.426Z,26.57
2019-01-22T09:33:37.339Z,31.93
2019-01-22T09:36:27.225Z,32.83
2019-01-22T09:38:55.699Z,28.15
2019-01-22T09:41:24.218Z,34.45
2019-01-22T09:43:52.752Z,28.98
2019-01-22T09:46:21.201Z,26.87
2019-01-22T09:48:49.681Z,35.15
2019-01-22T09:51:18.350Z,26.73
2019-01-22T09:53:46.857Z,29.50
2019-01-22T09:56:15.304Z,28.77
2019-01-22T09:58:43.816Z,27.05
2019-01-22T10:01:12.341Z,30.20
2019-01-22T10:03:40.840Z,31.00
2019-01-22T10:06:09.397Z,32.15
2019-01-22T10:08:37.945Z,29.10
2019-01-22T10:11:06.555Z,30.40
2019-01-22T10:13:35.101Z,29.77
2019-01-22T10:16:03.763Z,28.00
2019-01-22T10:18:32.396Z,29.17
2019-01-22T10:21:00.863Z,24.80
2019-01-22T10:23:29.380Z,29.13
2019-01-22T10:25:57.844Z,33.63
2019-01-22T10:28:29.624Z,31.23
2019-01-22T10:30:58.107Z,24.37
2019-01-22T10:33:26.563Z,30.70
2019-01-22T10:35:55.031Z,30.87
2019-01-22T10:38:23.475Z,31.93
2019-01-22T10:40:52.281Z,21.43
2019-01-22T10:43:20.717Z,21.87
2019-01-22T10:45:49.224Z,24.00
2019-01-22T10:48:17.736Z,26.23
2019-01-22T10:50:46.209Z,24.63
2019-01-22T10:53:14.661Z,23.57
2019-01-22T10:55:43.133Z,23.03
2019-01-22T10:58:11.576Z,20.47
2019-01-22T11:00:40.454Z,22.33
2019-01-22T11:03:09.009Z,21.53
2019-01-22T11:05:38.623Z,26.20
2019-01-22T11:08:07.409Z,23.30
2019-01-22T11:10:36.974Z,24.80
2019-01-22T11:13:06.478Z,21.87
2019-01-22T11:15:35.416Z,26.23
2019-01-22T11:18:04.492Z,24.07
2019-01-22T11:20:33.164Z,25.47
2019-01-22T11:23:01.624Z,27.87
2019-01-22T11:25:33.168Z,28.77
2019-01-22T11:28:01.735Z,29.63
2019-01-22T11:30:30.598Z,24.47
2019-01-22T11:32:59.124Z,24.00
2019-01-22T11:35:27.795Z,22.33
2019-01-22T11:37:56.331Z,28.53
2019-01-22T11:40:27.471Z,26.97
2019-01-22T11:42:55.944Z,24.47
2019-01-22T11:45:24.465Z,31.67
2019-01-22T11:47:53.099Z,27.23
2019-01-22T11:50:23.273Z,30.20
2019-01-22T11:52:51.836Z,26.13
2019-01-22T11:55:20.431Z,27.73
2019-01-22T11:57:49.069Z,30.77
2019-01-22T12:00:31.401Z,32.33
2019-01-22T12:02:59.952Z,29.57
2019-01-22T12:05:28.500Z,28.47
2019-01-22T12:07:57.031Z,27.00
2019-01-22T12:10:25.529Z,29.30
2019-01-22T12:12:54.082Z,28.17
2019-01-22T12:15:22.850Z,27.50
2019-01-22T12:17:51.427Z,27.03
2019-01-22T12:20:31.848Z,26.27
2019-01-22T12:23:00.530Z,21.80
2019-01-22T12:25:29.484Z,26.27
2019-01-22T12:27:58.014Z,27.20
2019-01-22T12:30:31.996Z,24.57
2019-01-22T12:33:00.694Z,26.03
2019-01-22T12:35:29.234Z,25.10
2019-01-22T12:37:57.805Z,25.80
2019-01-22T12:40:28.098Z,26.70
2019-01-22T12:42:56.970Z,28.37
2019-01-22T12:45:30.969Z,30.37
2019-01-22T12:48:01.213Z,31.60
2019-01-22T12:50:29.799Z,28.47
2019-01-22T12:52:58.330Z,26.43
2019-01-22T12:55:26.851Z,33.23
2019-01-22T12:57:55.313Z,32.30
2019-01-22T13:00:26.849Z,32.53
2019-01-22T13:02:55.523Z,31.40
2019-01-22T13:05:42.524Z,28.97
2019-01-22T13:08:11.177Z,29.80
2019-01-22T13:10:39.799Z,29.00
2019-01-22T13:13:08.310Z,35.67
2019-01-22T13:15:36.776Z,33.10
2019-01-22T13:18:05.369Z,31.80
2019-01-22T13:20:33.894Z,34.73
2019-01-22T13:23:02.713Z,32.57
2019-01-22T13:25:31.308Z,33.40
2019-01-22T13:27:59.748Z,33.10
2019-01-22T13:30:29.560Z,31.50
2019-01-22T13:32:58.176Z,31.67
2019-01-22T13:35:27.053Z,32.53
2019-01-22T13:37:55.565Z,32.20
2019-01-22T13:40:24.033Z,31.80
2019-01-22T13:42:52.472Z,30.40
2019-01-22T13:45:32.628Z,33.30
2019-01-22T13:48:02.794Z,31.20
2019-01-22T13:50:31.460Z,29.10
2019-01-22T13:52:59.908Z,25.20
2019-01-22T13:55:34.336Z,30.80
2019-01-22T13:58:02.924Z,33.27
2019-01-22T14:00:31.600Z,33.50
2019-01-22T14:03:01.296Z,28.73
2019-01-22T14:05:30.232Z,37.50
2019-01-22T14:07:58.860Z,36.80
2019-01-22T14:10:27.312Z,32.97
2019-01-22T14:12:56.720Z,34.50
2019-01-22T14:15:30.674Z,35.90
2019-01-22T14:17:59.221Z,38.28
2019-01-22T14:20:27.686Z,39.18
2019-01-22T14:22:56.224Z,35.92
2019-01-22T14:25:24.824Z,40.65
2019-01-22T14:27:53.372Z,39.10
2019-01-22T14:30:30.452Z,36.83
2019-01-22T14:32:59.452Z,45.17
2019-01-22T14:35:27.981Z,41.85
2019-01-22T14:37:56.472Z,41.70
2019-01-22T14:40:25.144Z,43.30
2019-01-22T14:42:53.815Z,39.27
2019-01-22T14:45:24.015Z,39.48
2019-01-22T14:47:52.568Z,44.15
2019-01-22T14:50:29.467Z,44.18
2019-01-22T14:52:57.953Z,43.83
2019-01-22T14:55:26.488Z,44.67
2019-01-22T14:57:55.108Z,44.55
2019-01-22T15:00:25.830Z,42.73
2019-01-22T15:02:55.321Z,36.38
2019-01-22T15:05:24.401Z,55.12
2019-01-22T15:07:52.927Z,48.40
2019-01-22T15:10:21.848Z,48.40
2019-01-22T15:12:55.843Z,41.18
2019-01-22T15:15:24.565Z,39.50
2019-01-22T15:17:53.011Z,43.52
2019-01-22T15:20:23.320Z,52.90
2019-01-22T15:22:51.914Z,50.83
2019-01-22T15:25:39.726Z,46.40
2019-01-22T15:28:08.176Z,46.28
2019-01-22T15:30:36.995Z,49.18
2019-01-22T15:33:05.886Z,49.18
2019-01-22T15:35:34.365Z,48.30
2019-01-22T15:38:02.903Z,55.08
2019-01-22T15:40:32.242Z,46.28
2019-01-22T15:43:00.759Z,45.80
2019-01-22T15:45:29.384Z,52.43
2019-01-22T15:47:57.908Z,54.30
2019-01-22T15:50:26.488Z,53.95
2019-01-22T15:52:55.052Z,49.27
2019-01-22T15:55:32.296Z,41.05
2019-01-22T15:58:00.909Z,54.45
2019-01-22T16:00:29.825Z,58.20
2019-01-22T16:02:58.447Z,52.75
2019-01-22T16:05:27.226Z,48.15
2019-01-22T16:07:55.709Z,52.60
2019-01-22T16:10:24.329Z,55.50
2019-01-22T16:12:52.941Z,58.42
2019-01-22T16:15:25.358Z,57.98
2019-01-22T16:17:54.373Z,54.40
2019-01-22T16:20:27.325Z,44.15
2019-01-22T16:22:56.618Z,44.98
2019-01-22T16:25:25.393Z,51.70
2019-01-22T16:27:54.006Z,43.90
2019-01-22T16:30:24.405Z,50.30
2019-01-22T16:32:53.037Z,49.75
2019-01-22T16:35:23.391Z,47.88
2019-01-22T16:37:51.927Z,51.15
2019-01-22T16:40:20.542Z,42.45
2019-01-22T16:42:49.541Z,52.13
2019-01-22T16:45:33.099Z,48.17
2019-01-22T16:48:01.615Z,43.05
2019-01-22T16:50:32.301Z,55.90
2019-01-22T16:53:02.613Z,46.90
2019-01-22T16:55:34.240Z,51.05
2019-01-22T16:58:02.713Z,47.62
2019-01-22T17:00:33.361Z,49.42
2019-01-22T17:03:01.920Z,46.53
2019-01-22T17:05:30.880Z,47.95
2019-01-22T17:07:59.527Z,44.67
2019-01-22T17:10:28.217Z,46.70
2019-01-22T17:12:56.684Z,47.25
2019-01-22T17:15:25.319Z,45.65
2019-01-22T17:17:53.764Z,40.60
2019-01-22T17:20:27.599Z,48.83
2019-01-22T17:23:02.001Z,44.63
2019-01-22T17:25:26.385Z,48.50
2019-01-22T17:27:54.922Z,43.65
2019-01-22T17:30:24.500Z,45.15
2019-01-22T17:33:00.535Z,47.33
2019-01-22T17:35:30.118Z,43.42
2019-01-22T17:37:58.560Z,44.50
2019-01-22T17:40:27.026Z,40.52
2019-01-22T17:42:55.480Z,44.40
2019-01-22T17:45:24.016Z,45.48
2019-01-22T17:47:52.865Z,46.85
2019-01-22T17:50:21.345Z,42.63
2019-01-22T17:52:49.948Z,39.03
2019-01-22T17:55:18.823Z,42.25
2019-01-22T17:57:47.296Z,37.78
2019-01-22T18:00:20.478Z,38.88
2019-01-22T18:02:49.018Z,41.73
2019-01-22T18:05:19.522Z,40.83
2019-01-22T18:07:48.559Z,40.03
2019-01-22T18:10:19.027Z,37.13
2019-01-22T18:12:47.501Z,39.38
2019-01-22T18:15:16.992Z,38.30
2019-01-22T18:17:45.611Z,34.67
2019-01-22T18:20:22.383Z,35.98
2019-01-22T18:22:50.936Z,34.78
2019-01-22T18:25:19.528Z,35.68
2019-01-22T18:27:48.073Z,37.30
2019-01-22T18:30:22.416Z,35.10
2019-01-22T18:32:50.970Z,36.73
2019-01-22T18:35:39.121Z,34.73
2019-01-22T18:38:08.203Z,41.28
2019-01-22T18:40:36.817Z,35.90
2019-01-22T18:43:05.296Z,36.73
2019-01-22T18:45:34.185Z,45.33
2019-01-22T18:48:02.846Z,34.95
2019-01-22T18:50:31.556Z,37.95
2019-01-22T18:53:00.043Z,36.65
2019-01-22T18:55:28.507Z,36.75
2019-01-22T18:57:57.020Z,37.35
2019-01-22T19:00:25.576Z,32.53
2019-01-22T19:02:54.210Z,37.35
2019-01-22T19:05:22.838Z,36.13
2019-01-22T19:07:51.486Z,40.43
2019-01-22T19:10:25.360Z,39.05
2019-01-22T19:12:53.993Z,36.30
2019-01-22T19:15:23.813Z,36.73
2019-01-22T19:17:52.531Z,37.98
2019-01-22T19:20:21.029Z,36.80
2019-01-22T19:22:49.769Z,35.23
2019-01-22T19:25:25.040Z,36.88
2019-01-22T19:27:53.496Z,32.95
2019-01-22T19:30:24.248Z,33.25
2019-01-22T19:32:52.739Z,40.73
2019-01-22T19:35:21.364Z,39.03
2019-01-22T19:37:50.012Z,36.55
2019-01-22T19:40:19.580Z,29.77
2019-01-22T19:42:48.668Z,36.90
2019-01-22T19:45:19.658Z,35.35
2019-01-22T19:47:48.212Z,34.83
2019-01-22T19:50:17.379Z,38.67
2019-01-22T19:52:45.918Z,35.83
2019-01-22T19:55:14.712Z,36.20
2019-01-22T19:57:43.184Z,34.67
2019-01-22T20:00:20.194Z,38.88
2019-01-22T20:02:48.743Z,38.67
2019-01-22T20:05:17.809Z,38.63
2019-01-22T20:07:46.347Z,39.43
2019-01-22T20:10:16.742Z,42.27
2019-01-22T20:12:45.222Z,42.50
2019-01-22T20:15:22.008Z,40.13
2019-01-22T20:17:50.553Z,39.13
2019-01-22T20:20:20.136Z,41.20
2019-01-22T20:22:48.720Z,36.90
2019-01-22T20:25:17.905Z,35.40
2019-01-22T20:27:48.061Z,41.58
2019-01-22T20:30:28.228Z,44.63
2019-01-22T20:32:57.070Z,43.65
2019-01-22T20:35:26.163Z,47.80
2019-01-22T20:37:54.888Z,41.80
2019-01-22T20:40:23.432Z,41.33
2019-01-22T20:42:51.958Z,34.08
2019-01-22T20:45:25.864Z,36.93
2019-01-22T20:47:54.650Z,41.63
2019-01-22T20:50:23.271Z,40.43
2019-01-22T20:52:51.793Z,36.25
2019-01-22T20:55:22.514Z,39.92
2019-01-22T20:57:54.972Z,35.88
2019-01-22T21:00:23.220Z,33.02
2019-01-22T21:02:52.009Z,43.50
2019-01-22T21:05:22.579Z,41.20
2019-01-22T21:07:51.243Z,39.55
2019-01-22T21:10:22.064Z,37.73
2019-01-22T21:12:50.569Z,39.47
2019-01-22T21:15:19.105Z,42.53
2019-01-22T21:17:47.763Z,42.87
2019-01-22T21:20:17.769Z,37.58
2019-01-22T21:22:46.408Z,38.28
2019-01-22T21:25:17.981Z,40.38
2019-01-22T21:27:46.467Z,40.03
2019-01-22T21:30:29.389Z,42.60
2019-01-22T21:32:57.967Z,39.67
2019-01-22T21:35:26.761Z,42.00
2019-01-22T21:37:55.309Z,39.38
2019-01-22T21:40:24.533Z,35.25
2019-01-22T21:42:53.099Z,36.43
2019-01-22T21:45:23.835Z,41.53
2019-01-22T21:47:52.310Z,43.67
2019-01-22T21:50:20.761Z,51.93
2019-01-22T21:52:49.250Z,45.77
2019-01-22T21:55:20.015Z,41.13
2019-01-22T21:57:48.749Z,36.53
2019-01-22T22:00:22.736Z,41.70
2019-01-22T22:02:51.268Z,40.77
2019-01-22T22:05:21.564Z,39.42
2019-01-22T22:07:50.307Z,48.43
2019-01-22T22:10:20.102Z,51.60
2019-01-22T22:12:48.637Z,44.50
2019-01-22T22:15:19.791Z,45.28
2019-01-22T22:17:48.497Z,39.73
2019-01-22T22:20:17.911Z,39.43
2019-01-22T22:22:46.436Z,41.07
2019-01-22T22:25:17.045Z,39.33
2019-01-22T22:27:45.489Z,42.07
2019-01-22T22:30:28.621Z,40.63
2019-01-22T22:32:57.079Z,43.68
2019-01-22T22:35:25.675Z,37.17
2019-01-22T22:37:54.233Z,41.93
2019-01-22T22:40:23.031Z,40.90
2019-01-22T22:42:51.551Z,38.92
2019-01-22T22:45:22.660Z,41.77
2019-01-22T22:47:51.462Z,46.33
2019-01-22T22:50:26.023Z,35.58
2019-01-22T22:52:54.562Z,42.63
2019-01-22T22:55:23.089Z,36.97
2019-01-22T22:57:51.542Z,37.33
2019-01-22T23:00:32.584Z,45.58
2019-01-22T23:03:02.702Z,33.23
2019-01-22T23:05:31.320Z,39.42
2019-01-22T23:07:59.768Z,34.77
2019-01-22T23:10:28.349Z,33.58
2019-01-22T23:12:56.791Z,40.30
2019-01-22T23:15:25.240Z,35.90
2019-01-22T23:17:53.716Z,38.73
2019-01-22T23:20:22.255Z,47.17
2019-01-22T23:22:50.774Z,87.85
2019-01-22T23:25:19.297Z,35.77
2019-01-22T23:27:47.780Z,35.00
2019-01-22T23:30:17.475Z,32.37
2019-01-22T23:32:45.936Z,34.60
2019-01-22T23:35:14.964Z,46.63
2019-01-22T23:37:43.541Z,32.03
2019-01-22T23:40:14.359Z,29.48
2019-01-22T23:42:42.890Z,30.60
2019-01-22T23:45:13.509Z,31.52
2019-01-22T23:47:42.100Z,28.87
2019-01-22T23:50:12.493Z,28.42
2019-01-22T23:52:41.115Z,30.15
2019-01-22T23:55:10.213Z,30.57
2019-01-22T23:57:39.288Z,27.52
